sensor_id;sensor_type;location;lat;lon;timestamp;temperature;humidity
21778;DHT22;11050;52.222;20.916;2022-12-07T00:01:25;1.70;99.90
21778;DHT22;11050;52.222;20.916;2022-12-07T00:03:54;1.70;99.90
21778;DHT22;11050;52.222;20.916;2022-12-07T00:06:26;1.70;99.90
21778;DHT22;11050;52.222;20.916;2022-12-07T00:08:52;1.70;99.90
21778;DHT22;11050;52.222;20.916;2022-12-07T00:11:22;1.70;99.90
21778;DHT22;11050;52.222;20.916;2022-12-07T00:13:53;1.70;99.90
21778;DHT22;11050;52.222;20.916;2022-12-07T00:16:22;1.70;99.90
21778;DHT22;11050;52.222;20.916;2022-12-07T00:18:49;1.70;99.90
21778;DHT22;11050;52.222;20.916;2022-12-07T00:21:24;1.70;99.90
21778;DHT22;11050;52.222;20.916;2022-12-07T00:23:53;1.70;99.90
21778;DHT22;11050;52.222;20.916;2022-12-07T00:28:56;1.80;99.90
21778;DHT22;11050;52.222;20.916;2022-12-07T00:31:29;1.80;99.90
21778;DHT22;11050;52.222;20.916;2022-12-07T00:34:01;1.90;99.90
21778;DHT22;11050;52.222;20.916;2022-12-07T00:36:27;1.90;99.90
21778;DHT22;11050;52.222;20.916;2022-12-07T00:38:58;1.90;99.90
21778;DHT22;11050;52.222;20.916;2022-12-07T00:41:27;1.90;99.90
21778;DHT22;11050;52.222;20.916;2022-12-07T00:43:54;1.90;99.90
21778;DHT22;11050;52.222;20.916;2022-12-07T00:46:21;1.90;99.90
21778;DHT22;11050;52.222;20.916;2022-12-07T00:48:49;1.90;99.90
21778;DHT22;11050;52.222;20.916;2022-12-07T00:51:17;2.00;99.90
21778;DHT22;11050;52.222;20.916;2022-12-07T00:53:45;2.00;99.90
21778;DHT22;11050;52.222;20.916;2022-12-07T00:56:14;2.00;99.90
21778;DHT22;11050;52.222;20.916;2022-12-07T00:58:41;2.00;99.90
21778;DHT22;11050;52.222;20.916;2022-12-07T01:01:08;2.00;99.90
21778;DHT22;11050;52.222;20.916;2022-12-07T01:03:36;2.00;99.90
21778;DHT22;11050;52.222;20.916;2022-12-07T01:06:03;2.10;99.90
21778;DHT22;11050;52.222;20.916;2022-12-07T01:08:29;2.10;99.90
21778;DHT22;11050;52.222;20.916;2022-12-07T01:11:04;2.10;99.90
21778;DHT22;11050;52.222;20.916;2022-12-07T01:13:34;2.10;99.90
21778;DHT22;11050;52.222;20.916;2022-12-07T01:16:03;2.10;99.90
21778;DHT22;11050;52.222;20.916;2022-12-07T01:18:32;2.10;99.90
21778;DHT22;11050;52.222;20.916;2022-12-07T01:21:06;2.20;99.90
21778;DHT22;11050;52.222;20.916;2022-12-07T01:23:35;2.20;99.90
21778;DHT22;11050;52.222;20.916;2022-12-07T01:26:04;2.20;99.90
21778;DHT22;11050;52.222;20.916;2022-12-07T01:28:32;2.20;99.90
21778;DHT22;11050;52.222;20.916;2022-12-07T01:31:07;2.20;99.90
21778;DHT22;11050;52.222;20.916;2022-12-07T01:33:41;2.30;99.90
21778;DHT22;11050;52.222;20.916;2022-12-07T01:36:15;2.30;99.90
21778;DHT22;11050;52.222;20.916;2022-12-07T01:38:41;2.30;99.90
21778;DHT22;11050;52.222;20.916;2022-12-07T01:41:09;2.30;99.90
21778;DHT22;11050;52.222;20.916;2022-12-07T01:43:35;2.30;99.90
21778;DHT22;11050;52.222;20.916;2022-12-07T01:46:03;2.40;99.90
21778;DHT22;11050;52.222;20.916;2022-12-07T01:48:40;2.40;99.90
21778;DHT22;11050;52.222;20.916;2022-12-07T01:51:12;2.40;99.90
21778;DHT22;11050;52.222;20.916;2022-12-07T01:53:43;2.40;99.90
21778;DHT22;11050;52.222;20.916;2022-12-07T01:56:15;2.40;99.90
21778;DHT22;11050;52.222;20.916;2022-12-07T01:58:44;2.40;99.90
21778;DHT22;11050;52.222;20.916;2022-12-07T02:01:11;2.40;99.90
21778;DHT22;11050;52.222;20.916;2022-12-07T02:03:39;2.40;99.90
21778;DHT22;11050;52.222;20.916;2022-12-07T02:06:07;2.40;99.90
21778;DHT22;11050;52.222;20.916;2022-12-07T02:08:35;2.40;99.90
21778;DHT22;11050;52.222;20.916;2022-12-07T02:11:02;2.40;99.90
21778;DHT22;11050;52.222;20.916;2022-12-07T02:13:33;2.40;99.90
21778;DHT22;11050;52.222;20.916;2022-12-07T02:17:05;2.40;99.90
21778;DHT22;11050;52.222;20.916;2022-12-07T02:23:07;2.40;99.90
21778;DHT22;11050;52.222;20.916;2022-12-07T02:29:20;2.40;99.90
21778;DHT22;11050;52.222;20.916;2022-12-07T02:32:10;2.40;99.90
21778;DHT22;11050;52.222;20.916;2022-12-07T02:34:47;2.40;99.90
21778;DHT22;11050;52.222;20.916;2022-12-07T02:40:56;2.40;99.90
21778;DHT22;11050;52.222;20.916;2022-12-07T02:43:33;2.40;99.90
21778;DHT22;11050;52.222;20.916;2022-12-07T02:46:10;2.40;99.90
21778;DHT22;11050;52.222;20.916;2022-12-07T02:48:41;2.40;99.90
21778;DHT22;11050;52.222;20.916;2022-12-07T02:51:09;2.30;99.90
21778;DHT22;11050;52.222;20.916;2022-12-07T02:53:37;2.30;99.90
21778;DHT22;11050;52.222;20.916;2022-12-07T03:11:26;2.30;99.90
21778;DHT22;11050;52.222;20.916;2022-12-07T03:16:42;2.20;99.90
21778;DHT22;11050;52.222;20.916;2022-12-07T03:19:20;2.20;99.90
21778;DHT22;11050;52.222;20.916;2022-12-07T03:21:57;2.20;99.90
21778;DHT22;11050;52.222;20.916;2022-12-07T03:24:35;2.20;99.90
21778;DHT22;11050;52.222;20.916;2022-12-07T03:27:15;2.20;99.90
21778;DHT22;11050;52.222;20.916;2022-12-07T03:29:59;2.20;99.90
21778;DHT22;11050;52.222;20.916;2022-12-07T03:32:38;2.10;99.90
21778;DHT22;11050;52.222;20.916;2022-12-07T03:35:33;2.10;99.90
21778;DHT22;11050;52.222;20.916;2022-12-07T03:38:25;2.00;99.90
21778;DHT22;11050;52.222;20.916;2022-12-07T03:41:06;2.00;99.90
21778;DHT22;11050;52.222;20.916;2022-12-07T03:43:34;2.00;99.90
21778;DHT22;11050;52.222;20.916;2022-12-07T03:49:11;1.90;99.90
21778;DHT22;11050;52.222;20.916;2022-12-07T03:51:57;1.90;99.90
21778;DHT22;11050;52.222;20.916;2022-12-07T03:57:42;1.80;99.90
21778;DHT22;11050;52.222;20.916;2022-12-07T04:00:12;1.80;99.90
21778;DHT22;11050;52.222;20.916;2022-12-07T04:02:39;1.80;99.90
21778;DHT22;11050;52.222;20.916;2022-12-07T04:05:07;1.70;99.90
21778;DHT22;11050;52.222;20.916;2022-12-07T04:07:33;1.80;99.90
21778;DHT22;11050;52.222;20.916;2022-12-07T04:09:59;1.70;99.90
21778;DHT22;11050;52.222;20.916;2022-12-07T04:12:24;1.70;99.90
21778;DHT22;11050;52.222;20.916;2022-12-07T04:14:50;1.70;99.90
21778;DHT22;11050;52.222;20.916;2022-12-07T04:17:16;1.70;99.90
21778;DHT22;11050;52.222;20.916;2022-12-07T04:19:42;1.70;99.90
21778;DHT22;11050;52.222;20.916;2022-12-07T04:22:07;1.70;99.90
21778;DHT22;11050;52.222;20.916;2022-12-07T04:24:33;1.70;99.90
21778;DHT22;11050;52.222;20.916;2022-12-07T04:27:00;1.70;99.90
21778;DHT22;11050;52.222;20.916;2022-12-07T04:29:26;1.70;99.90
21778;DHT22;11050;52.222;20.916;2022-12-07T04:31:52;1.60;99.90
21778;DHT22;11050;52.222;20.916;2022-12-07T04:34:19;1.60;99.90
21778;DHT22;11050;52.222;20.916;2022-12-07T04:36:45;1.70;99.90
21778;DHT22;11050;52.222;20.916;2022-12-07T04:39:25;1.60;99.90
21778;DHT22;11050;52.222;20.916;2022-12-07T04:41:53;1.60;99.90
21778;DHT22;11050;52.222;20.916;2022-12-07T04:44:20;1.60;99.90
21778;DHT22;11050;52.222;20.916;2022-12-07T04:46:46;1.60;99.90
21778;DHT22;11050;52.222;20.916;2022-12-07T04:49:13;1.60;99.90
21778;DHT22;11050;52.222;20.916;2022-12-07T04:51:40;1.60;99.90
21778;DHT22;11050;52.222;20.916;2022-12-07T04:54:06;1.60;99.90
21778;DHT22;11050;52.222;20.916;2022-12-07T04:56:32;1.50;99.90
21778;DHT22;11050;52.222;20.916;2022-12-07T04:58:59;1.50;99.90
21778;DHT22;11050;52.222;20.916;2022-12-07T05:01:25;1.50;99.90
21778;DHT22;11050;52.222;20.916;2022-12-07T05:03:51;1.50;99.90
21778;DHT22;11050;52.222;20.916;2022-12-07T05:06:17;1.50;99.90
21778;DHT22;11050;52.222;20.916;2022-12-07T05:08:43;1.50;99.90
21778;DHT22;11050;52.222;20.916;2022-12-07T05:11:10;1.50;99.90
21778;DHT22;11050;52.222;20.916;2022-12-07T05:14:00;1.50;99.90
21778;DHT22;11050;52.222;20.916;2022-12-07T05:16:27;1.40;99.90
21778;DHT22;11050;52.222;20.916;2022-12-07T05:18:53;1.40;99.90
21778;DHT22;11050;52.222;20.916;2022-12-07T05:21:19;1.40;99.90
21778;DHT22;11050;52.222;20.916;2022-12-07T05:23:45;1.40;99.90
21778;DHT22;11050;52.222;20.916;2022-12-07T05:26:10;1.40;99.90
21778;DHT22;11050;52.222;20.916;2022-12-07T05:28:36;1.40;99.90
21778;DHT22;11050;52.222;20.916;2022-12-07T05:31:02;1.40;99.90
21778;DHT22;11050;52.222;20.916;2022-12-07T05:33:28;1.40;99.90
21778;DHT22;11050;52.222;20.916;2022-12-07T05:35:54;1.30;99.90
21778;DHT22;11050;52.222;20.916;2022-12-07T05:38:20;1.40;99.90
21778;DHT22;11050;52.222;20.916;2022-12-07T05:40:45;1.30;99.90
21778;DHT22;11050;52.222;20.916;2022-12-07T05:43:11;1.30;99.90
21778;DHT22;11050;52.222;20.916;2022-12-07T05:45:37;1.30;99.90
21778;DHT22;11050;52.222;20.916;2022-12-07T05:48:03;1.30;99.90
21778;DHT22;11050;52.222;20.916;2022-12-07T05:50:28;1.30;99.90
21778;DHT22;11050;52.222;20.916;2022-12-07T05:52:54;1.30;99.90
21778;DHT22;11050;52.222;20.916;2022-12-07T05:55:20;1.30;99.90
21778;DHT22;11050;52.222;20.916;2022-12-07T05:57:46;1.30;99.90
21778;DHT22;11050;52.222;20.916;2022-12-07T06:00:32;1.20;99.90
21778;DHT22;11050;52.222;20.916;2022-12-07T06:02:57;1.20;99.90
21778;DHT22;11050;52.222;20.916;2022-12-07T06:05:23;1.30;99.90
21778;DHT22;11050;52.222;20.916;2022-12-07T06:07:49;1.20;99.90
21778;DHT22;11050;52.222;20.916;2022-12-07T06:10:15;1.20;99.90
21778;DHT22;11050;52.222;20.916;2022-12-07T06:12:41;1.20;99.90
21778;DHT22;11050;52.222;20.916;2022-12-07T06:15:09;1.20;99.90
21778;DHT22;11050;52.222;20.916;2022-12-07T06:17:36;1.20;99.90
21778;DHT22;11050;52.222;20.916;2022-12-07T06:20:03;1.20;99.90
21778;DHT22;11050;52.222;20.916;2022-12-07T06:22:29;1.20;99.90
21778;DHT22;11050;52.222;20.916;2022-12-07T06:24:55;1.10;99.90
21778;DHT22;11050;52.222;20.916;2022-12-07T06:27:20;1.10;99.90
21778;DHT22;11050;52.222;20.916;2022-12-07T06:29:46;1.20;99.90
21778;DHT22;11050;52.222;20.916;2022-12-07T06:32:12;1.10;99.90
21778;DHT22;11050;52.222;20.916;2022-12-07T06:34:38;1.10;99.90
21778;DHT22;11050;52.222;20.916;2022-12-07T06:37:04;1.10;99.90
21778;DHT22;11050;52.222;20.916;2022-12-07T06:39:30;1.10;99.90
21778;DHT22;11050;52.222;20.916;2022-12-07T06:41:56;1.10;99.90
21778;DHT22;11050;52.222;20.916;2022-12-07T06:44:23;1.10;99.90
21778;DHT22;11050;52.222;20.916;2022-12-07T06:46:50;1.10;99.90
21778;DHT22;11050;52.222;20.916;2022-12-07T06:49:16;1.10;99.90
21778;DHT22;11050;52.222;20.916;2022-12-07T06:51:43;1.10;99.90
21778;DHT22;11050;52.222;20.916;2022-12-07T06:54:10;1.10;99.90
21778;DHT22;11050;52.222;20.916;2022-12-07T06:56:38;1.10;99.90
21778;DHT22;11050;52.222;20.916;2022-12-07T06:59:05;1.10;99.90
21778;DHT22;11050;52.222;20.916;2022-12-07T07:01:32;1.10;99.90
21778;DHT22;11050;52.222;20.916;2022-12-07T07:04:00;1.10;99.90
21778;DHT22;11050;52.222;20.916;2022-12-07T07:06:26;1.20;99.90
21778;DHT22;11050;52.222;20.916;2022-12-07T07:08:52;1.10;99.90
21778;DHT22;11050;52.222;20.916;2022-12-07T07:11:18;1.10;99.90
21778;DHT22;11050;52.222;20.916;2022-12-07T07:13:45;1.20;99.90
21778;DHT22;11050;52.222;20.916;2022-12-07T07:16:11;1.10;99.90
21778;DHT22;11050;52.222;20.916;2022-12-07T07:18:37;1.20;99.90
21778;DHT22;11050;52.222;20.916;2022-12-07T07:21:03;1.10;99.90
21778;DHT22;11050;52.222;20.916;2022-12-07T07:23:29;1.10;99.90
21778;DHT22;11050;52.222;20.916;2022-12-07T07:25:56;1.20;99.90
21778;DHT22;11050;52.222;20.916;2022-12-07T07:28:21;1.20;99.90
21778;DHT22;11050;52.222;20.916;2022-12-07T07:30:47;1.10;99.90
21778;DHT22;11050;52.222;20.916;2022-12-07T07:33:13;1.20;99.90
21778;DHT22;11050;52.222;20.916;2022-12-07T07:35:39;1.20;99.90
21778;DHT22;11050;52.222;20.916;2022-12-07T07:38:05;1.20;99.90
21778;DHT22;11050;52.222;20.916;2022-12-07T07:40:32;1.20;99.90
21778;DHT22;11050;52.222;20.916;2022-12-07T07:42:58;1.20;99.90
21778;DHT22;11050;52.222;20.916;2022-12-07T07:45:25;1.20;99.90
21778;DHT22;11050;52.222;20.916;2022-12-07T07:47:52;1.30;99.90
21778;DHT22;11050;52.222;20.916;2022-12-07T07:50:18;1.30;99.90
21778;DHT22;11050;52.222;20.916;2022-12-07T07:52:45;1.20;99.90
21778;DHT22;11050;52.222;20.916;2022-12-07T07:55:11;1.30;99.90
21778;DHT22;11050;52.222;20.916;2022-12-07T07:57:38;1.30;99.90
21778;DHT22;11050;52.222;20.916;2022-12-07T08:00:15;1.30;99.90
21778;DHT22;11050;52.222;20.916;2022-12-07T08:02:42;1.30;99.90
21778;DHT22;11050;52.222;20.916;2022-12-07T08:05:09;1.30;99.90
21778;DHT22;11050;52.222;20.916;2022-12-07T08:07:36;1.30;99.90
21778;DHT22;11050;52.222;20.916;2022-12-07T08:10:02;1.30;99.90
21778;DHT22;11050;52.222;20.916;2022-12-07T08:12:28;1.30;99.90
21778;DHT22;11050;52.222;20.916;2022-12-07T08:14:54;1.30;99.90
21778;DHT22;11050;52.222;20.916;2022-12-07T08:17:20;1.40;99.90
21778;DHT22;11050;52.222;20.916;2022-12-07T08:19:45;1.40;99.90
21778;DHT22;11050;52.222;20.916;2022-12-07T08:22:11;1.40;99.90
21778;DHT22;11050;52.222;20.916;2022-12-07T08:24:37;1.40;99.90
21778;DHT22;11050;52.222;20.916;2022-12-07T08:27:03;1.50;99.90
21778;DHT22;11050;52.222;20.916;2022-12-07T08:29:29;1.40;99.90
21778;DHT22;11050;52.222;20.916;2022-12-07T08:31:55;1.50;99.90
21778;DHT22;11050;52.222;20.916;2022-12-07T08:34:21;1.50;99.90
21778;DHT22;11050;52.222;20.916;2022-12-07T08:36:46;1.50;99.90
21778;DHT22;11050;52.222;20.916;2022-12-07T08:39:12;1.50;99.90
21778;DHT22;11050;52.222;20.916;2022-12-07T08:41:38;1.60;99.90
21778;DHT22;11050;52.222;20.916;2022-12-07T08:44:04;1.60;99.90
21778;DHT22;11050;52.222;20.916;2022-12-07T08:46:44;1.60;99.90
21778;DHT22;11050;52.222;20.916;2022-12-07T08:49:24;1.70;99.90
21778;DHT22;11050;52.222;20.916;2022-12-07T08:52:04;1.70;99.90
21778;DHT22;11050;52.222;20.916;2022-12-07T08:54:33;1.80;99.90
21778;DHT22;11050;52.222;20.916;2022-12-07T08:57:03;1.80;99.90
21778;DHT22;11050;52.222;20.916;2022-12-07T08:59:30;1.90;99.90
21778;DHT22;11050;52.222;20.916;2022-12-07T09:01:56;2.00;99.90
21778;DHT22;11050;52.222;20.916;2022-12-07T09:04:21;2.00;99.90
21778;DHT22;11050;52.222;20.916;2022-12-07T09:06:47;2.00;99.90
21778;DHT22;11050;52.222;20.916;2022-12-07T09:09:14;2.00;99.90
21778;DHT22;11050;52.222;20.916;2022-12-07T09:11:40;2.10;99.90
21778;DHT22;11050;52.222;20.916;2022-12-07T09:14:06;2.10;99.90
21778;DHT22;11050;52.222;20.916;2022-12-07T09:16:32;2.20;99.90
21778;DHT22;11050;52.222;20.916;2022-12-07T09:18:58;2.20;99.90
21778;DHT22;11050;52.222;20.916;2022-12-07T09:21:23;2.30;99.90
21778;DHT22;11050;52.222;20.916;2022-12-07T09:23:49;2.30;99.90
21778;DHT22;11050;52.222;20.916;2022-12-07T09:26:15;2.40;99.90
21778;DHT22;11050;52.222;20.916;2022-12-07T09:28:41;2.40;99.90
21778;DHT22;11050;52.222;20.916;2022-12-07T09:31:06;2.40;99.90
21778;DHT22;11050;52.222;20.916;2022-12-07T09:33:32;2.40;99.90
21778;DHT22;11050;52.222;20.916;2022-12-07T09:35:58;2.40;99.90
21778;DHT22;11050;52.222;20.916;2022-12-07T09:38:24;2.40;99.90
21778;DHT22;11050;52.222;20.916;2022-12-07T09:40:52;2.50;99.90
21778;DHT22;11050;52.222;20.916;2022-12-07T09:43:22;2.50;99.90
21778;DHT22;11050;52.222;20.916;2022-12-07T09:45:52;2.60;99.90
21778;DHT22;11050;52.222;20.916;2022-12-07T09:48:43;2.60;99.90
21778;DHT22;11050;52.222;20.916;2022-12-07T09:51:18;2.60;99.90
21778;DHT22;11050;52.222;20.916;2022-12-07T09:53:46;2.60;99.90
21778;DHT22;11050;52.222;20.916;2022-12-07T09:56:14;2.70;99.90
21778;DHT22;11050;52.222;20.916;2022-12-07T09:58:42;2.60;99.90
21778;DHT22;11050;52.222;20.916;2022-12-07T10:03:39;2.70;99.90
21778;DHT22;11050;52.222;20.916;2022-12-07T10:06:11;2.70;99.90
21778;DHT22;11050;52.222;20.916;2022-12-07T10:08:38;2.70;99.90
21778;DHT22;11050;52.222;20.916;2022-12-07T10:11:04;2.70;99.90
21778;DHT22;11050;52.222;20.916;2022-12-07T10:13:41;2.80;99.90
21778;DHT22;11050;52.222;20.916;2022-12-07T10:16:39;2.80;99.90
21778;DHT22;11050;52.222;20.916;2022-12-07T10:19:29;2.80;99.90
21778;DHT22;11050;52.222;20.916;2022-12-07T10:22:03;2.80;99.90
21778;DHT22;11050;52.222;20.916;2022-12-07T10:24:40;2.80;99.90
21778;DHT22;11050;52.222;20.916;2022-12-07T10:27:31;2.80;99.90
21778;DHT22;11050;52.222;20.916;2022-12-07T10:29:58;2.80;99.90
21778;DHT22;11050;52.222;20.916;2022-12-07T10:32:33;2.80;99.90
21778;DHT22;11050;52.222;20.916;2022-12-07T10:37:52;2.80;99.90
21778;DHT22;11050;52.222;20.916;2022-12-07T10:40:39;2.80;99.90
21778;DHT22;11050;52.222;20.916;2022-12-07T10:54:44;2.90;99.90
21778;DHT22;11050;52.222;20.916;2022-12-07T11:07:14;3.10;99.90
21778;DHT22;11050;52.222;20.916;2022-12-07T11:10:12;3.10;99.90
21778;DHT22;11050;52.222;20.916;2022-12-07T11:21:56;3.20;99.90
21778;DHT22;11050;52.222;20.916;2022-12-07T11:27:16;3.10;99.90
21778;DHT22;11050;52.222;20.916;2022-12-07T11:30:23;3.10;99.90
21778;DHT22;11050;52.222;20.916;2022-12-07T11:33:01;3.10;99.90
21778;DHT22;11050;52.222;20.916;2022-12-07T11:38:55;3.10;99.90
21778;DHT22;11050;52.222;20.916;2022-12-07T11:41:28;3.20;99.90
21778;DHT22;11050;52.222;20.916;2022-12-07T11:44:06;3.20;99.90
21778;DHT22;11050;52.222;20.916;2022-12-07T11:46:50;3.20;99.90
21778;DHT22;11050;52.222;20.916;2022-12-07T11:52:45;3.30;99.90
21778;DHT22;11050;52.222;20.916;2022-12-07T11:55:21;3.30;99.90
21778;DHT22;11050;52.222;20.916;2022-12-07T12:01:32;3.30;99.90
21778;DHT22;11050;52.222;20.916;2022-12-07T12:04:43;3.40;99.90
21778;DHT22;11050;52.222;20.916;2022-12-07T12:07:17;3.40;99.90
21778;DHT22;11050;52.222;20.916;2022-12-07T12:09:52;3.30;99.90
21778;DHT22;11050;52.222;20.916;2022-12-07T12:13:08;3.30;99.90
21778;DHT22;11050;52.222;20.916;2022-12-07T12:18:17;3.20;99.90
21778;DHT22;11050;52.222;20.916;2022-12-07T12:21:11;3.00;99.90
21778;DHT22;11050;52.222;20.916;2022-12-07T12:24:09;2.90;99.90
21778;DHT22;11050;52.222;20.916;2022-12-07T12:27:14;2.90;99.90
21778;DHT22;11050;52.222;20.916;2022-12-07T12:29:53;2.90;99.90
21778;DHT22;11050;52.222;20.916;2022-12-07T12:32:23;2.80;99.90
21778;DHT22;11050;52.222;20.916;2022-12-07T12:35:20;2.80;99.90
21778;DHT22;11050;52.222;20.916;2022-12-07T12:40:57;2.80;99.90
21778;DHT22;11050;52.222;20.916;2022-12-07T12:43:43;2.80;99.90
21778;DHT22;11050;52.222;20.916;2022-12-07T12:49:14;2.80;99.90
21778;DHT22;11050;52.222;20.916;2022-12-07T12:52:46;2.80;99.90
21778;DHT22;11050;52.222;20.916;2022-12-07T12:57:34;2.70;99.90
21778;DHT22;11050;52.222;20.916;2022-12-07T13:00:18;2.70;99.90
21778;DHT22;11050;52.222;20.916;2022-12-07T13:02:52;2.70;99.90
21778;DHT22;11050;52.222;20.916;2022-12-07T13:05:22;2.70;99.90
21778;DHT22;11050;52.222;20.916;2022-12-07T13:10:39;2.70;99.90
21778;DHT22;11050;52.222;20.916;2022-12-07T13:20:59;2.70;99.90
21778;DHT22;11050;52.222;20.916;2022-12-07T13:23:38;2.60;99.90
21778;DHT22;11050;52.222;20.916;2022-12-07T13:26:22;2.60;99.90
21778;DHT22;11050;52.222;20.916;2022-12-07T13:29:15;2.60;99.90
21778;DHT22;11050;52.222;20.916;2022-12-07T13:31:57;2.60;99.90
21778;DHT22;11050;52.222;20.916;2022-12-07T13:34:30;2.60;99.90
21778;DHT22;11050;52.222;20.916;2022-12-07T13:37:10;2.50;99.90
21778;DHT22;11050;52.222;20.916;2022-12-07T13:39:59;2.50;99.90
21778;DHT22;11050;52.222;20.916;2022-12-07T13:42:34;2.50;99.90
21778;DHT22;11050;52.222;20.916;2022-12-07T13:45:22;2.50;99.90
21778;DHT22;11050;52.222;20.916;2022-12-07T13:48:30;2.50;99.90
21778;DHT22;11050;52.222;20.916;2022-12-07T13:50:59;2.40;99.90
21778;DHT22;11050;52.222;20.916;2022-12-07T13:53:27;2.40;99.90
21778;DHT22;11050;52.222;20.916;2022-12-07T13:55:58;2.40;99.90
21778;DHT22;11050;52.222;20.916;2022-12-07T13:58:27;2.40;99.90
21778;DHT22;11050;52.222;20.916;2022-12-07T14:00:58;2.40;99.90
21778;DHT22;11050;52.222;20.916;2022-12-07T14:03:33;2.40;99.90
21778;DHT22;11050;52.222;20.916;2022-12-07T14:08:42;2.40;99.90
21778;DHT22;11050;52.222;20.916;2022-12-07T14:11:14;2.30;99.90
21778;DHT22;11050;52.222;20.916;2022-12-07T14:16:29;2.30;99.90
21778;DHT22;11050;52.222;20.916;2022-12-07T14:19:03;2.20;99.90
21778;DHT22;11050;52.222;20.916;2022-12-07T14:21:32;2.20;99.90
21778;DHT22;11050;52.222;20.916;2022-12-07T14:24:19;2.20;99.90
21778;DHT22;11050;52.222;20.916;2022-12-07T14:26:49;2.10;99.90
21778;DHT22;11050;52.222;20.916;2022-12-07T14:29:42;2.10;99.90
21778;DHT22;11050;52.222;20.916;2022-12-07T14:32:17;2.10;99.90
21778;DHT22;11050;52.222;20.916;2022-12-07T14:37:36;2.00;99.90
21778;DHT22;11050;52.222;20.916;2022-12-07T14:40:03;2.00;99.90
21778;DHT22;11050;52.222;20.916;2022-12-07T14:42:31;1.90;99.90
21778;DHT22;11050;52.222;20.916;2022-12-07T14:44:59;1.90;99.90
21778;DHT22;11050;52.222;20.916;2022-12-07T14:47:26;1.80;99.90
21778;DHT22;11050;52.222;20.916;2022-12-07T14:49:52;1.80;99.90
21778;DHT22;11050;52.222;20.916;2022-12-07T14:52:26;1.80;99.90
21778;DHT22;11050;52.222;20.916;2022-12-07T14:54:55;1.80;99.90
21778;DHT22;11050;52.222;20.916;2022-12-07T14:57:21;1.70;99.90
21778;DHT22;11050;52.222;20.916;2022-12-07T14:59:47;1.70;99.90
21778;DHT22;11050;52.222;20.916;2022-12-07T15:02:14;1.70;99.90
21778;DHT22;11050;52.222;20.916;2022-12-07T15:04:41;1.70;99.90
21778;DHT22;11050;52.222;20.916;2022-12-07T15:07:14;1.60;99.90
21778;DHT22;11050;52.222;20.916;2022-12-07T15:09:45;1.60;99.90
21778;DHT22;11050;52.222;20.916;2022-12-07T15:12:11;1.60;99.90
21778;DHT22;11050;52.222;20.916;2022-12-07T15:14:37;1.60;99.90
21778;DHT22;11050;52.222;20.916;2022-12-07T15:17:03;1.60;99.90
21778;DHT22;11050;52.222;20.916;2022-12-07T15:19:28;1.60;99.90
21778;DHT22;11050;52.222;20.916;2022-12-07T15:21:55;1.60;99.90
21778;DHT22;11050;52.222;20.916;2022-12-07T15:24:21;1.60;99.90
21778;DHT22;11050;52.222;20.916;2022-12-07T15:26:47;1.60;99.90
21778;DHT22;11050;52.222;20.916;2022-12-07T15:29:13;1.60;99.90
21778;DHT22;11050;52.222;20.916;2022-12-07T15:31:40;1.60;99.90
21778;DHT22;11050;52.222;20.916;2022-12-07T15:34:06;1.60;99.90
21778;DHT22;11050;52.222;20.916;2022-12-07T15:36:33;1.60;99.90
21778;DHT22;11050;52.222;20.916;2022-12-07T15:38:59;1.60;99.90
21778;DHT22;11050;52.222;20.916;2022-12-07T15:41:26;1.60;99.90
21778;DHT22;11050;52.222;20.916;2022-12-07T15:43:51;1.60;99.90
21778;DHT22;11050;52.222;20.916;2022-12-07T15:46:39;1.60;99.90
21778;DHT22;11050;52.222;20.916;2022-12-07T15:49:12;1.60;99.90
21778;DHT22;11050;52.222;20.916;2022-12-07T15:51:41;1.70;99.90
21778;DHT22;11050;52.222;20.916;2022-12-07T15:54:19;1.70;99.90
21778;DHT22;11050;52.222;20.916;2022-12-07T15:56:48;1.70;99.90
21778;DHT22;11050;52.222;20.916;2022-12-07T15:59:14;1.70;99.90
21778;DHT22;11050;52.222;20.916;2022-12-07T16:01:40;1.70;99.90
21778;DHT22;11050;52.222;20.916;2022-12-07T16:04:06;1.70;99.90
21778;DHT22;11050;52.222;20.916;2022-12-07T16:06:32;1.80;99.90
21778;DHT22;11050;52.222;20.916;2022-12-07T16:08:58;1.80;99.90
21778;DHT22;11050;52.222;20.916;2022-12-07T16:11:24;1.80;99.90
21778;DHT22;11050;52.222;20.916;2022-12-07T16:13:49;1.90;99.90
21778;DHT22;11050;52.222;20.916;2022-12-07T16:16:17;1.90;99.90
21778;DHT22;11050;52.222;20.916;2022-12-07T16:18:46;1.90;99.90
21778;DHT22;11050;52.222;20.916;2022-12-07T16:21:13;1.90;99.90
21778;DHT22;11050;52.222;20.916;2022-12-07T16:23:40;1.90;99.90
21778;DHT22;11050;52.222;20.916;2022-12-07T16:26:11;1.90;99.90
21778;DHT22;11050;52.222;20.916;2022-12-07T16:28:42;1.90;99.90
21778;DHT22;11050;52.222;20.916;2022-12-07T16:31:13;2.00;99.90
21778;DHT22;11050;52.222;20.916;2022-12-07T16:33:41;2.00;99.90
21778;DHT22;11050;52.222;20.916;2022-12-07T16:36:10;2.00;99.90
21778;DHT22;11050;52.222;20.916;2022-12-07T16:38:42;2.00;99.90
21778;DHT22;11050;52.222;20.916;2022-12-07T16:41:08;2.00;99.90
21778;DHT22;11050;52.222;20.916;2022-12-07T16:43:35;2.00;99.90
21778;DHT22;11050;52.222;20.916;2022-12-07T16:46:01;2.00;99.90
21778;DHT22;11050;52.222;20.916;2022-12-07T16:48:28;2.10;99.90
21778;DHT22;11050;52.222;20.916;2022-12-07T16:50:54;2.10;99.90
21778;DHT22;11050;52.222;20.916;2022-12-07T16:53:21;2.10;99.90
21778;DHT22;11050;52.222;20.916;2022-12-07T16:55:48;2.10;99.90
21778;DHT22;11050;52.222;20.916;2022-12-07T16:58:16;2.10;99.90
21778;DHT22;11050;52.222;20.916;2022-12-07T17:00:43;2.10;99.90
21778;DHT22;11050;52.222;20.916;2022-12-07T17:03:09;2.10;99.90
21778;DHT22;11050;52.222;20.916;2022-12-07T17:05:40;2.10;99.90
21778;DHT22;11050;52.222;20.916;2022-12-07T17:08:07;2.10;99.90
21778;DHT22;11050;52.222;20.916;2022-12-07T17:10:36;2.10;99.90
21778;DHT22;11050;52.222;20.916;2022-12-07T17:13:05;2.10;99.90
21778;DHT22;11050;52.222;20.916;2022-12-07T17:16:03;2.10;99.90
21778;DHT22;11050;52.222;20.916;2022-12-07T17:18:33;2.20;99.90
21778;DHT22;11050;52.222;20.916;2022-12-07T17:21:08;2.20;99.90
21778;DHT22;11050;52.222;20.916;2022-12-07T17:23:35;2.10;99.90
21778;DHT22;11050;52.222;20.916;2022-12-07T17:26:10;2.10;99.90
21778;DHT22;11050;52.222;20.916;2022-12-07T17:28:37;2.10;99.90
21778;DHT22;11050;52.222;20.916;2022-12-07T17:31:09;2.10;99.90
21778;DHT22;11050;52.222;20.916;2022-12-07T17:33:36;2.10;99.90
21778;DHT22;11050;52.222;20.916;2022-12-07T17:38:39;2.10;99.90
21778;DHT22;11050;52.222;20.916;2022-12-07T17:41:14;2.20;99.90
21778;DHT22;11050;52.222;20.916;2022-12-07T17:44:01;2.20;99.90
21778;DHT22;11050;52.222;20.916;2022-12-07T17:46:27;2.20;99.90
21778;DHT22;11050;52.222;20.916;2022-12-07T17:48:54;2.20;99.90
21778;DHT22;11050;52.222;20.916;2022-12-07T17:51:20;2.20;99.90
21778;DHT22;11050;52.222;20.916;2022-12-07T17:54:04;2.20;99.90